Track Рязанова Олеся

Time Latitude Longitude Accuracy (66% radius in meters) Altitude (meters) Speed (km/hour) Bearing (degrees) Battery (%) GPS flag
06:29:56 57.203936 60.117999 0 0 0 0 1 delete
06:29:55 57.203936 60.118000 0 0 0 0 1 delete
06:29:52 57.203997 60.117905 0 0 0 0 1 delete
06:29:49 57.204079 60.117770 0 0 0 0 1 delete
06:29:48 57.204113 60.117722 0 0 0 0 1 delete
06:29:46 57.204175 60.117624 0 0 0 0 1 delete
06:29:45 57.204202 60.117575 0 0 0 0 1 delete
06:29:43 57.204261 60.117460 0 0 0 0 1 delete
06:29:42 57.204286 60.117410 0 0 0 0 1 delete
06:29:39 57.204396 60.117301 0 0 0 0 1 delete
06:29:37 57.204494 60.117276 0 0 0 0 1 delete
06:29:33 57.204683 60.117290 0 0 0 0 1 delete
06:29:32 57.204726 60.117313 0 0 0 0 1 delete
06:29:27 57.204926 60.117409 0 0 0 0 1 delete
06:29:26 57.204963 60.117432 0 0 0 0 1 delete
06:29:24 57.205022 60.117457 0 0 0 0 1 delete
06:29:22 57.205072 60.117517 0 0 0 0 1 delete
06:29:21 57.205092 60.117545 0 0 0 0 1 delete
06:29:19 57.205108 60.117584 0 0 0 0 1 delete
06:29:18 57.205114 60.117572 0 0 0 0 1 delete
06:29:16 57.205115 60.117525 0 0 0 0 1 delete
06:29:14 57.205127 60.117423 0 0 0 0 1 delete
06:29:13 57.205140 60.117366 0 0 0 0 1 delete
06:29:10 57.205173 60.117237 0 0 0 0 1 delete
06:29:06 57.205283 60.117164 0 0 0 0 1 delete
06:29:03 57.205355 60.117087 0 0 0 0 1 delete
06:29:02 57.205381 60.117060 0 0 0 0 1 delete
06:29:00 57.205440 60.117013 0 0 0 0 1 delete
06:28:58 57.205524 60.116988 0 0 0 0 1 delete
06:28:57 57.205561 60.116983 0 0 0 0 1 delete
06:28:56 57.205614 60.116977 0 0 0 0 1 delete
06:28:55 57.205669 60.116949 0 0 0 0 1 delete
06:28:54 57.205735 60.116926 0 0 0 0 1 delete
06:28:53 57.205806 60.116919 0 0 0 0 1 delete
06:28:52 57.205886 60.116932 0 0 0 0 1 delete
06:28:51 57.205931 60.116944 0 0 0 0 1 delete
06:28:49 57.206047 60.116987 0 0 0 0 1 delete
06:28:48 57.206097 60.117009 0 0 0 0 1 delete
06:28:47 57.206137 60.117017 0 0 0 0 1 delete
06:28:44 57.206279 60.117073 0 0 0 0 1 delete
06:28:39 57.206463 60.117114 0 0 0 0 1 delete
06:28:37 57.206523 60.117132 0 0 0 0 1 delete
06:28:35 57.206571 60.117150 0 0 0 0 1 delete
06:28:32 57.206614 60.117123 0 0 0 0 1 delete
06:28:30 57.206618 60.117054 0 0 0 0 1 delete
06:28:29 57.206615 60.117020 0 0 0 0 1 delete
06:28:24 57.206554 60.116894 0 0 0 0 1 delete
06:28:21 57.206520 60.116840 0 0 0 0 1 delete
06:28:19 57.206506 60.116812 0 0 0 0 1 delete
06:28:16 57.206487 60.116763 0 0 0 0 1 delete